This demonstration page uses our WeatherBlox Daily Observations layout. Learn more.

36.17497, -115.13722

Hourly Observations for June 13, 2015

Temp ( °F °C ) Dew Point ( °F °C ) Humidity (%) Winds ( mph kmh ) Pressure ( in mb ) Visibility ( mi km ) Precip ( " mm )
12:53 am 00:53 Clear 88 31.1 41 5 19 19 N 8 13 29.66 1005 10 16.0934 0 0
1:53 am 01:53 Clear 86 30 42 5.6 21 21 NW 7 11 29.65 1004 10 16.0934 0 0
2:53 am 02:53 Clear 86 30 43 6.1 22 22 NNW 10 17 29.65 1004 10 16.0934 0 0
3:53 am 03:53 Clear 86 30 44 6.7 23 23 N 8 13 29.66 1004 10 16.0934 0 0
4:53 am 04:53 Clear 83 28.3 44 6.7 25 25 Calm 29.68 1005 10 16.0934 0 0
5:53 am 05:53 Sunny 82 27.8 44 6.7 26 26 NW 7 11 29.7 1006 10 16.0934 0 0
6:53 am 06:53 Sunny 85 29.4 44 6.7 24 24 NNW 8 13 29.7 1006 10 16.0934 0 0
7:53 am 07:53 Sunny 89 31.7 44 6.7 21 21 N 8 13 29.71 1006 10 16.0934 0 0
8:53 am 08:53 Sunny 92 33.3 43 6.1 18 18 VRB 3 6 29.71 1006 10 16.0934 0 0
9:53 am 09:53 Sunny 93 33.9 43 6.1 18 18 ESE 3 6 29.71 1006 10 16.0934 0 0
10:53 am 10:53 Sunny 96 35.6 43 6.1 16 16 NNE 5 7 29.7 1006 10 16.0934 0 0
11:53 am 11:53 Sunny 99 37.2 42 5.6 14 14 VRB 3 6 29.68 1005 10 16.0934 0 0
12:53 pm 12:53 Sunny 99 37.2 41 5 14 14 undefined N/A 29.66 1005 10 16.0934 0 0
1:53 pm 13:53 Sunny 99 37.2 39 3.9 12 12 SW 8 13 29.64 1004 10 16.0934 0 0
2:53 pm 14:53 Sunny 101 38.3 34 1.1 10 10 VRB 7 11 29.62 1003 10 16.0934 0 0
3:53 pm 15:53 Sunny 103 39.4 32 0 8 8 Calm 29.6 1003 10 16.0934 0 0
4:53 pm 16:53 Sunny 101 38.3 31 -0.6 8 8 Calm 29.59 1002 10 16.0934 0 0
5:53 pm 17:53 Sunny 102 38.9 32 0 9 9 SSE 7 11 29.57 1001 10 16.0934 0 0
6:53 pm 18:53 Sunny 102 38.9 31 -0.6 8 8 S 8 13 29.57 1001 10 16.0934 0 0
7:53 pm 19:53 Sunny 99 37.2 38 3.3 12 12 SSW 9 15 29.57 1002 10 16.0934 0 0
8:53 pm 20:53 Clear 97 36.1 39 3.9 13 13 WNW 22 35 29.6 1002 10 16.0934 0 0
9:08 pm 21:08 Mostly Cloudy with Light Rain 95 35 41 5 15 15 WSW 17 28 29.5 999 10 16.0934 0 0
9:53 pm 21:53 Mostly Clear 94 34.4 40 4.4 15 15 VRB 5 7 29.66 1005 10 16.0934 0 0.0254
10:53 pm 22:53 Clear 92 33.3 44 6.7 19 19 E 8 13 29.66 1005 10 16.0934 0 0
11:53 pm 23:53 Clear 89 31.7 45 7.2 22 22 NE 5 7 29.67 1005 10 16.0934 0 0

Powered by AerisWeather